< < Back
Terminal Aerodrome Forecast


Current Version              Previous Versions:   1  2  3  4  5  6  7  8  9  

Terminal Aerodrome Forecast

407
FTUS44 KMOB 180500
TAFMOB
TAF
KMOB 180539Z 1806/1906 VRB03KT P6SM BKN250
     FM181500 06004KT P6SM SCT080 BKN250
     FM190100 03004KT P6SM BKN050=

Latest METAR

036
SAUS80 KWBC 181200 RRA
MTRMOB
METAR KMOB 181156Z 05005KT 7SM FEW090 SCT250 05/03 A3019 RMK AO2 SLP223
T00500033 10067 20044 53001


USA.gov is the U.S. government's official web portal to all federal, state and local government web resources and services.